Hovedside
METAR-TAF:

METAR-TAF

Lufthavner :

Nadi, Fiji

breddegrad: 17-45S, lengdegrad: 177-27E, høyde over havet: 13 m

Gjeldene værobservasjon

Denne rapporten ble laget for 54 minutter siden, klokken 21:00 UTC
Vind 4 kt fra Sør-sørøst
Temperatur 26°C
Luftfuktighet 65%
Trykk 1018 hPa
Sikt 10 km eller mer
Få skyer i en høyde av 3000 ft
Spredte skyer i en høyde av 12000 ft

METAR: NFFN 252100Z 15004KT 9999 FEW030 SCT120 26/19 Q1018 NOSIG

Tid: 09:54 (21:54 UTC)

Varsel

Denne rapporten ble laget for 4 timer og 48 minutter siden, klokken 17:06 UTC
Varsel gyldig fra 25. klokken 18 UTC til 26. klokken 18 UTC
Vind 8 kt fra Øst-sørøst
Sikt 10 km eller mer
Få skyer i en høyde av 3000 ft
Blir
fra 25. klokken 22 UTC til 25. klokken 24 UTC
Vind 10 kt fra Vest-nordvest
Blir
fra 26. klokken 04 UTC til 26. klokken 06 UTC
Vind 5 kt fra Øst-sørøst

TAF: NFFN 251706Z 2518/2618 12008KT 9999 FEW030 BECMG 2522/2524 30010KT BECMG 2604/2606 12005KT

Værobservasjoner og værvarsel for over 4000 flyplasser (METAR- og TAF-rapporter).

Tilgjengelige stasjoner er representert av de røde og gule prikkene på kartet.

Hold musepekeren over prikken for å se navnet på stasjonen.

Klikk så for å se værobservasjoner og -varsler.

For å forandre kartet kan du klikke på den grønne knappen med svart kryss for å zoome inn, på den grønne knappen med strek for å zoome ut, eller på de grønne pilene for å se tilstøtende kart.


METAR-TAF: